Time;durP1;ratioP1;P1;durP2;ratioP2;P2;SDS_P1;SDS_P2;PMS_P1;PMS_P2;Temp;Humidity;BMP_temperature;BMP_pressure;BME280_temperature;BME280_humidity;BME280_pressure;Samples;Min_cycle;Max_cycle;Signal;HPM_P1;HPM_P2
2021/04/30 00:00:48;;;;;;;7.07;6.40;;;;;;;;;;5059951;28;20590;-66
2021/04/30 00:03:15;;;;;;;7.03;6.43;;;;;;;;;;5060093;28;20201;-66
2021/04/30 00:05:42;;;;;;;6.35;5.75;;;;;;;;;;5060269;28;20266;-66
2021/04/30 00:08:08;;;;;;;6.80;6.30;;;;;;;;;;5059959;28;20201;-66
2021/04/30 00:10:35;;;;;;;19.85;7.88;;;;;;;;;;5058965;28;20200;-66
2021/04/30 00:13:02;;;;;;;6.68;5.97;;;;;;;;;;5060073;28;20683;-66
2021/04/30 00:15:28;;;;;;;7.72;7.03;;;;;;;;;;5060172;28;20271;-66
2021/04/30 00:17:55;;;;;;;6.80;6.20;;;;;;;;;;5060377;28;20208;-66
2021/04/30 00:20:22;;;;;;;6.68;6.05;;;;;;;;;;5061232;28;20219;-66
2021/04/30 00:22:48;;;;;;;9.07;5.85;;;;;;;;;;5059827;28;20201;-66
2021/04/30 00:25:15;;;;;;;13.68;6.88;;;;;;;;;;5058995;28;20209;-67
2021/04/30 00:27:42;;;;;;;7.13;6.25;;;;;;;;;;5058144;28;20192;-66
2021/04/30 00:30:09;;;;;;;7.40;6.80;;;;;;;;;;5059950;28;20211;-65
2021/04/30 00:32:35;;;;;;;7.85;6.45;;;;;;;;;;5060628;28;20209;-66
2021/04/30 00:35:03;;;;;;;7.80;6.50;;;;;;;;;;5061304;28;20581;-66
2021/04/30 00:37:30;;;;;;;7.43;6.72;;;;;;;;;;5061957;28;20196;-66
2021/04/30 00:39:56;;;;;;;7.35;6.57;;;;;;;;;;5062992;28;20679;-66
2021/04/30 00:42:23;;;;;;;12.02;7.40;;;;;;;;;;5062624;28;20268;-66
2021/04/30 00:44:50;;;;;;;7.22;6.63;;;;;;;;;;5062616;28;20283;-66
2021/04/30 00:47:36;;;;;;;7.80;7.10;;;;;;;;;;5062081;28;20205;-66
2021/04/30 00:50:07;;;;;;;7.55;6.85;;;;;;;;;;5062119;28;20214;-66
2021/04/30 00:52:35;;;;;;;8.95;8.05;;;;;;;;;;5062244;28;20221;-66
2021/04/30 00:55:03;;;;;;;8.45;7.07;;;;;;;;;;5062593;28;20219;-66
2021/04/30 00:57:30;;;;;;;7.60;6.85;;;;;;;;;;5062215;28;20209;-66
2021/04/30 00:59:58;;;;;;;11.05;7.32;;;;;;;;;;5063071;28;20196;-66
2021/04/30 01:02:25;;;;;;;9.45;7.70;;;;;;;;;;5056938;28;20192;-66
2021/04/30 01:04:51;;;;;;;9.43;8.50;;;;;;;;;;5056041;28;20560;-66
2021/04/30 01:07:18;;;;;;;6.82;6.32;;;;;;;;;;5056246;28;20205;-66
2021/04/30 01:09:46;;;;;;;6.57;6.05;;;;;;;;;;5056506;28;20569;-66
2021/04/30 01:12:12;;;;;;;7.88;7.13;;;;;;;;;;5055942;28;20208;-65
2021/04/30 01:14:39;;;;;;;7.68;6.95;;;;;;;;;;5056053;28;20224;-66
2021/04/30 01:17:06;;;;;;;8.07;6.80;;;;;;;;;;5055945;28;20192;-66
2021/04/30 01:19:32;;;;;;;8.35;7.35;;;;;;;;;;5055926;28;20279;-66
2021/04/30 01:22:00;;;;;;;7.40;6.53;;;;;;;;;;5055978;28;20196;-65
2021/04/30 01:24:26;;;;;;;7.15;6.55;;;;;;;;;;5055960;28;20563;-66
2021/04/30 01:26:53;;;;;;;7.80;7.10;;;;;;;;;;5055416;28;20216;-66
2021/04/30 01:29:21;;;;;;;7.13;6.47;;;;;;;;;;5055867;28;20567;-66
2021/04/30 01:31:48;;;;;;;8.30;7.60;;;;;;;;;;5055662;28;20198;-66
2021/04/30 01:34:14;;;;;;;7.30;6.70;;;;;;;;;;5055657;28;20224;-66
2021/04/30 01:36:41;;;;;;;9.75;7.32;;;;;;;;;;5055526;28;20200;-66
2021/04/30 01:39:09;;;;;;;7.85;6.57;;;;;;;;;;5054194;28;20205;-66
2021/04/30 01:41:37;;;;;;;10.25;7.55;;;;;;;;;;5055107;28;20256;-65
2021/04/30 01:44:07;;;;;;;9.93;7.00;;;;;;;;;;5055452;28;20196;-65
2021/04/30 01:46:34;;;;;;;7.70;7.00;;;;;;;;;;5055507;28;20188;-65
2021/04/30 01:49:01;;;;;;;7.43;6.68;;;;;;;;;;5055718;28;20276;-66
2021/04/30 01:51:27;;;;;;;8.30;7.50;;;;;;;;;;5055360;28;20193;-65
2021/04/30 01:53:54;;;;;;;8.80;7.90;;;;;;;;;;5055014;28;20204;-66
2021/04/30 01:56:21;;;;;;;8.18;7.45;;;;;;;;;;5055180;28;20247;-66
2021/04/30 01:58:47;;;;;;;8.63;7.78;;;;;;;;;;5055158;28;20227;-66
2021/04/30 02:01:14;;;;;;;7.95;7.00;;;;;;;;;;5055167;28;20188;-66
2021/04/30 02:03:41;;;;;;;8.98;8.05;;;;;;;;;;5054903;28;20192;-65
2021/04/30 02:06:07;;;;;;;8.32;7.53;;;;;;;;;;5055026;28;20193;-65
2021/04/30 02:08:34;;;;;;;7.95;6.72;;;;;;;;;;5054742;28;20215;-66
2021/04/30 02:11:01;;;;;;;11.73;8.05;;;;;;;;;;5055121;28;20205;-65
2021/04/30 02:13:28;;;;;;;8.68;7.78;;;;;;;;;;5054834;28;20227;-65
2021/04/30 02:15:55;;;;;;;7.38;6.68;;;;;;;;;;5054714;28;20199;-65
2021/04/30 02:18:22;;;;;;;8.38;7.57;;;;;;;;;;5054680;28;20203;-66
2021/04/30 02:20:49;;;;;;;8.27;7.47;;;;;;;;;;5058568;28;20216;-65
2021/04/30 02:23:16;;;;;;;8.23;7.10;;;;;;;;;;5054457;28;20188;-66
2021/04/30 02:25:43;;;;;;;8.13;7.32;;;;;;;;;;5054586;28;20292;-66
2021/04/30 02:28:09;;;;;;;8.35;7.55;;;;;;;;;;5054667;28;20649;-65
2021/04/30 02:30:38;;;;;;;8.63;7.80;;;;;;;;;;5054249;28;20196;-65
2021/04/30 02:33:05;;;;;;;8.57;7.80;;;;;;;;;;5054385;28;20197;-65
2021/04/30 02:35:34;;;;;;;8.13;7.32;;;;;;;;;;5054369;28;20219;-65
2021/04/30 02:38:01;;;;;;;15.15;11.27;;;;;;;;;;5054286;28;20196;-65
2021/04/30 02:40:28;;;;;;;8.82;8.02;;;;;;;;;;5053119;28;20227;-65
2021/04/30 02:42:56;;;;;;;9.68;8.68;;;;;;;;;;5054017;28;20242;-65
2021/04/30 02:45:23;;;;;;;9.63;8.63;;;;;;;;;;5054234;28;20221;-65
2021/04/30 02:47:51;;;;;;;11.50;10.00;;;;;;;;;;5054576;28;20267;-65
2021/04/30 02:50:19;;;;;;;38.05;32.03;;;;;;;;;;5053950;28;20197;-65
2021/04/30 02:52:46;;;;;;;23.83;20.20;;;;;;;;;;5053432;28;20228;-66
2021/04/30 02:55:14;;;;;;;15.38;13.65;;;;;;;;;;5056642;28;20218;-65
2021/04/30 02:57:41;;;;;;;10.48;9.23;;;;;;;;;;5054491;28;20552;-65
2021/04/30 03:00:09;;;;;;;12.55;11.35;;;;;;;;;;5054618;28;20196;-64
2021/04/30 03:02:35;;;;;;;30.98;28.08;;;;;;;;;;5073752;28;20193;-65
2021/04/30 03:05:03;;;;;;;11.10;10.02;;;;;;;;;;5073724;28;20303;-65
2021/04/30 03:07:29;;;;;;;10.70;8.50;;;;;;;;;;5073658;28;20199;-65
2021/04/30 03:09:56;;;;;;;13.45;12.05;;;;;;;;;;5074044;28;20242;-65
2021/04/30 03:12:23;;;;;;;11.75;9.60;;;;;;;;;;5073660;28;20195;-65
2021/04/30 03:14:49;;;;;;;9.93;8.90;;;;;;;;;;5073249;28;20199;-64
2021/04/30 03:17:16;;;;;;;11.15;8.90;;;;;;;;;;5073976;28;20191;-65
2021/04/30 03:19:43;;;;;;;10.27;8.50;;;;;;;;;;5074091;28;20196;-65
2021/04/30 03:22:09;;;;;;;11.65;9.20;;;;;;;;;;5074069;28;20188;-64
2021/04/30 03:24:36;;;;;;;11.80;9.43;;;;;;;;;;5073813;28;20219;-64
2021/04/30 03:27:03;;;;;;;10.90;8.40;;;;;;;;;;5074019;28;20204;-64
2021/04/30 03:29:29;;;;;;;11.68;9.93;;;;;;;;;;5073954;28;20316;-64
2021/04/30 03:31:56;;;;;;;12.65;9.43;;;;;;;;;;5073865;28;20206;-64
2021/04/30 03:34:23;;;;;;;9.45;8.07;;;;;;;;;;5073523;28;20195;-64
2021/04/30 03:36:49;;;;;;;13.55;8.80;;;;;;;;;;5073875;28;20208;-64
2021/04/30 03:39:16;;;;;;;10.90;8.80;;;;;;;;;;5073806;28;20196;-64
2021/04/30 03:41:43;;;;;;;11.57;10.38;;;;;;;;;;5073893;28;20295;-64
2021/04/30 03:44:09;;;;;;;14.63;9.50;;;;;;;;;;5073459;28;20282;-64
2021/04/30 03:46:36;;;;;;;11.45;9.77;;;;;;;;;;5072221;28;20683;-64
2021/04/30 03:49:05;;;;;;;11.50;9.32;;;;;;;;;;5073516;28;20596;-64
2021/04/30 03:51:31;;;;;;;8.93;8.02;;;;;;;;;;5071300;28;20216;-65
2021/04/30 03:53:58;;;;;;;9.32;8.00;;;;;;;;;;5060267;28;20706;-64
2021/04/30 03:56:25;;;;;;;9.70;8.57;;;;;;;;;;5073046;28;20199;-65
2021/04/30 03:58:51;;;;;;;10.00;8.32;;;;;;;;;;5072981;28;20195;-65
2021/04/30 04:01:18;;;;;;;9.77;7.63;;;;;;;;;;5073322;28;20193;-64
2021/04/30 04:03:45;;;;;;;10.70;8.93;;;;;;;;;;5072700;28;20204;-64
2021/04/30 04:06:11;;;;;;;9.75;8.80;;;;;;;;;;5076867;28;20224;-64
2021/04/30 04:08:38;;;;;;;11.70;8.25;;;;;;;;;;5076817;28;20192;-64
2021/04/30 04:11:05;;;;;;;9.95;8.93;;;;;;;;;;5076973;28;20192;-64
2021/04/30 04:13:31;;;;;;;9.00;8.10;;;;;;;;;;5071614;28;20302;-65
2021/04/30 04:16:02;;;;;;;8.50;7.70;;;;;;;;;;5068457;28;20210;-65
2021/04/30 04:18:29;;;;;;;8.82;7.75;;;;;;;;;;5076900;28;20210;-64
2021/04/30 04:20:56;;;;;;;8.75;7.90;;;;;;;;;;5075717;28;20204;-64
2021/04/30 04:23:23;;;;;;;10.10;8.25;;;;;;;;;;5074920;28;20208;-64
2021/04/30 04:25:50;;;;;;;10.95;7.57;;;;;;;;;;5077086;28;20318;-64
2021/04/30 04:28:17;;;;;;;8.80;7.88;;;;;;;;;;5077403;28;20677;-65
2021/04/30 04:30:43;;;;;;;13.57;8.60;;;;;;;;;;5077698;28;20274;-65
2021/04/30 04:33:10;;;;;;;9.55;8.57;;;;;;;;;;5077840;28;20206;-65
2021/04/30 04:35:37;;;;;;;11.63;8.40;;;;;;;;;;5077965;28;20241;-66
2021/04/30 04:38:04;;;;;;;10.05;8.20;;;;;;;;;;5077422;28;20192;-66
2021/04/30 04:40:31;;;;;;;19.95;10.15;;;;;;;;;;5077806;28;20230;-65
2021/04/30 04:42:57;;;;;;;9.63;8.73;;;;;;;;;;5075718;28;20202;-65
2021/04/30 04:45:24;;;;;;;10.35;8.25;;;;;;;;;;5077069;28;20216;-64
2021/04/30 04:47:51;;;;;;;9.43;8.32;;;;;;;;;;5077263;28;20188;-64
2021/04/30 04:50:17;;;;;;;11.07;9.52;;;;;;;;;;5076996;28;20225;-64
2021/04/30 04:52:44;;;;;;;11.40;9.68;;;;;;;;;;5076534;28;20224;-64
2021/04/30 04:55:12;;;;;;;10.85;8.25;;;;;;;;;;5076573;28;20192;-64
2021/04/30 04:57:39;;;;;;;10.55;8.73;;;;;;;;;;5076510;28;20601;-64
2021/04/30 05:00:07;;;;;;;11.05;8.90;;;;;;;;;;5076677;28;20559;-64
2021/04/30 05:02:33;;;;;;;10.27;8.50;;;;;;;;;;5075193;28;20550;-63
2021/04/30 05:05:00;;;;;;;13.95;8.90;;;;;;;;;;5062857;28;20220;-63
2021/04/30 05:07:27;;;;;;;11.30;9.95;;;;;;;;;;5070013;28;20199;-63
2021/04/30 05:09:53;;;;;;;13.70;8.90;;;;;;;;;;5066807;28;20192;-64
2021/04/30 05:12:20;;;;;;;14.23;8.43;;;;;;;;;;5075952;28;20200;-63
2021/04/30 05:14:47;;;;;;;11.68;8.63;;;;;;;;;;5076156;28;20210;-63
2021/04/30 05:17:13;;;;;;;11.25;8.10;;;;;;;;;;5076168;28;20196;-64
2021/04/30 05:19:40;;;;;;;11.48;8.70;;;;;;;;;;5076010;28;20196;-64
2021/04/30 05:22:11;;;;;;;9.43;8.48;;;;;;;;;;5075983;28;20195;-64
2021/04/30 05:24:38;;;;;;;10.35;9.05;;;;;;;;;;5076432;28;20551;-64
2021/04/30 05:27:06;;;;;;;13.55;9.43;;;;;;;;;;5075901;28;20195;-64
2021/04/30 05:29:36;;;;;;;11.35;9.95;;;;;;;;;;5075718;28;20207;-64
2021/04/30 05:32:02;;;;;;;11.88;10.02;;;;;;;;;;5075767;28;20187;-64
2021/04/30 05:34:29;;;;;;;13.75;10.82;;;;;;;;;;5076027;28;20204;-64
2021/04/30 05:37:03;;;;;;;18.20;9.80;;;;;;;;;;5076106;28;20258;-64
2021/04/30 05:39:30;;;;;;;11.82;9.65;;;;;;;;;;5075860;28;20295;-64
2021/04/30 05:41:57;;;;;;;20.48;9.80;;;;;;;;;;5075469;28;20223;-64
2021/04/30 05:44:24;;;;;;;14.43;10.07;;;;;;;;;;5075379;28;20192;-63
2021/04/30 05:46:51;;;;;;;10.18;9.25;;;;;;;;;;5075525;28;20547;-65
2021/04/30 05:49:17;;;;;;;11.40;9.73;;;;;;;;;;5075190;28;20184;-63
2021/04/30 05:51:44;;;;;;;10.40;9.43;;;;;;;;;;5075010;28;20200;-65
2021/04/30 05:54:11;;;;;;;11.05;9.32;;;;;;;;;;5075900;28;20691;-65
2021/04/30 05:56:37;;;;;;;15.63;10.32;;;;;;;;;;5074237;28;20338;-65
2021/04/30 05:59:04;;;;;;;14.40;10.07;;;;;;;;;;5075465;28;20195;-65
2021/04/30 06:01:31;;;;;;;16.20;12.43;;;;;;;;;;5075651;28;20216;-65
2021/04/30 06:03:57;;;;;;;11.90;9.65;;;;;;;;;;5075617;28;20284;-65
2021/04/30 06:06:24;;;;;;;12.48;10.13;;;;;;;;;;5075538;28;20605;-65
2021/04/30 06:08:50;;;;;;;17.00;10.93;;;;;;;;;;5075143;28;20198;-65
2021/04/30 06:11:17;;;;;;;11.52;10.32;;;;;;;;;;5075176;28;20204;-65
2021/04/30 06:13:44;;;;;;;10.95;9.80;;;;;;;;;;5074919;28;20192;-65
2021/04/30 06:16:11;;;;;;;13.50;10.27;;;;;;;;;;5074651;28;20204;-65
2021/04/30 06:18:37;;;;;;;10.82;9.73;;;;;;;;;;5074558;28;20202;-65
2021/04/30 06:21:04;;;;;;;102.38;17.98;;;;;;;;;;5075242;28;20206;-65
2021/04/30 06:23:31;;;;;;;53.13;13.13;;;;;;;;;;5074860;28;20643;-65
2021/04/30 06:25:57;;;;;;;12.88;10.43;;;;;;;;;;5074290;28;20365;-65
2021/04/30 06:28:24;;;;;;;17.65;10.75;;;;;;;;;;5074391;28;20212;-65
2021/04/30 06:30:51;;;;;;;57.35;14.65;;;;;;;;;;5074689;28;20658;-65
2021/04/30 06:33:18;;;;;;;17.83;10.23;;;;;;;;;;5074533;28;20275;-65
2021/04/30 06:35:44;;;;;;;42.83;13.15;;;;;;;;;;5073123;28;20211;-65
2021/04/30 06:38:11;;;;;;;12.55;11.30;;;;;;;;;;5074501;28;20198;-65
2021/04/30 06:40:38;;;;;;;12.88;11.05;;;;;;;;;;5074334;28;20626;-66
2021/04/30 06:43:04;;;;;;;13.45;11.10;;;;;;;;;;5075055;28;21275;-65
2021/04/30 06:45:32;;;;;;;18.88;11.30;;;;;;;;;;5080364;28;20254;-67
2021/04/30 06:47:58;;;;;;;13.50;11.10;;;;;;;;;;5082593;28;20199;-66
2021/04/30 06:50:25;;;;;;;12.70;9.20;;;;;;;;;;5078686;28;20196;-66
2021/04/30 06:52:54;;;;;;;17.50;11.30;;;;;;;;;;5078435;28;20594;-66
2021/04/30 06:55:21;;;;;;;15.68;11.80;;;;;;;;;;5081904;28;20287;-67
2021/04/30 06:57:48;;;;;;;12.57;10.70;;;;;;;;;;5081438;28;20188;-66
2021/04/30 07:00:17;;;;;;;11.57;10.50;;;;;;;;;;5081930;28;20214;-66
2021/04/30 07:02:44;;;;;;;12.93;11.63;;;;;;;;;;5082330;28;20222;-66
2021/04/30 07:05:11;;;;;;;15.93;12.88;;;;;;;;;;5083982;28;20223;-66
2021/04/30 07:07:38;;;;;;;16.27;12.73;;;;;;;;;;5085163;28;20662;-66
2021/04/30 07:10:05;;;;;;;13.10;11.70;;;;;;;;;;5082677;28;20263;-66
2021/04/30 07:12:32;;;;;;;13.77;12.27;;;;;;;;;;5079595;28;20559;-66
2021/04/30 07:15:01;;;;;;;12.85;11.40;;;;;;;;;;5079819;28;20203;-66
2021/04/30 07:17:28;;;;;;;17.95;12.85;;;;;;;;;;5074257;28;20286;-64
2021/04/30 07:19:55;;;;;;;13.35;11.90;;;;;;;;;;5073907;28;20573;-64
2021/04/30 07:22:22;;;;;;;19.92;12.73;;;;;;;;;;5073708;28;20233;-64
2021/04/30 07:24:48;;;;;;;14.68;12.57;;;;;;;;;;5073586;28;20192;-64
2021/04/30 07:27:17;;;;;;;13.98;12.25;;;;;;;;;;5073410;28;20245;-64
2021/04/30 07:29:44;;;;;;;13.23;11.70;;;;;;;;;;5073823;28;20673;-64
2021/04/30 07:32:11;;;;;;;20.42;13.32;;;;;;;;;;5073553;28;20270;-64
2021/04/30 07:34:38;;;;;;;14.48;12.57;;;;;;;;;;5073737;28;20673;-64
2021/04/30 07:37:05;;;;;;;14.23;12.80;;;;;;;;;;5073482;28;20202;-64
2021/04/30 07:39:32;;;;;;;14.40;12.68;;;;;;;;;;5073221;28;20208;-63
2021/04/30 07:41:59;;;;;;;14.90;13.32;;;;;;;;;;5073585;28;20216;-64
2021/04/30 07:44:26;;;;;;;14.20;12.70;;;;;;;;;;5073634;28;20200;-64
2021/04/30 07:46:52;;;;;;;17.00;13.57;;;;;;;;;;5073412;28;20659;-64
2021/04/30 07:49:19;;;;;;;15.48;13.23;;;;;;;;;;5073684;28;20210;-62
2021/04/30 07:51:46;;;;;;;16.67;14.27;;;;;;;;;;5073191;28;20279;-64
2021/04/30 07:54:13;;;;;;;17.45;13.95;;;;;;;;;;5073015;28;20206;-63
2021/04/30 07:56:39;;;;;;;15.23;13.00;;;;;;;;;;5073404;28;20208;-63
2021/04/30 07:59:06;;;;;;;17.70;15.80;;;;;;;;;;5073524;28;20298;-63
2021/04/30 08:01:33;;;;;;;15.07;13.27;;;;;;;;;;5072976;28;20188;-63
2021/04/30 08:04:00;;;;;;;16.40;14.20;;;;;;;;;;5073272;28;20253;-66
2021/04/30 08:06:26;;;;;;;23.30;15.30;;;;;;;;;;5077384;28;20671;-66
2021/04/30 08:08:53;;;;;;;20.88;14.27;;;;;;;;;;5078851;28;20196;-66
2021/04/30 08:11:20;;;;;;;17.90;13.32;;;;;;;;;;5079666;28;20192;-65
2021/04/30 08:13:47;;;;;;;21.30;15.48;;;;;;;;;;5080698;28;20200;-66
2021/04/30 08:16:13;;;;;;;16.08;14.35;;;;;;;;;;5078562;28;20706;-66
2021/04/30 08:18:40;;;;;;;16.55;14.75;;;;;;;;;;5078385;28;20267;-66
2021/04/30 08:21:07;;;;;;;18.42;14.27;;;;;;;;;;5081202;28;20207;-66
2021/04/30 08:23:34;;;;;;;21.70;15.48;;;;;;;;;;5081974;28;20199;-65
2021/04/30 08:26:01;;;;;;;17.83;14.32;;;;;;;;;;5081987;28;20224;-65
2021/04/30 08:28:28;;;;;;;20.58;15.30;;;;;;;;;;5079655;28;20184;-67
2021/04/30 08:30:55;;;;;;;16.95;15.35;;;;;;;;;;5061903;28;20287;-64
2021/04/30 08:33:25;;;;;;;22.23;16.45;;;;;;;;;;5075608;28;20199;-64
2021/04/30 08:35:52;;;;;;;20.95;15.38;;;;;;;;;;5075177;28;20211;-65
2021/04/30 08:38:19;;;;;;;16.25;14.55;;;;;;;;;;5075944;28;20719;-65
2021/04/30 08:40:46;;;;;;;20.20;15.55;;;;;;;;;;5063174;28;20235;-65
2021/04/30 08:43:16;;;;;;;17.80;15.65;;;;;;;;;;5077131;28;20211;-65
2021/04/30 08:45:43;;;;;;;23.98;17.42;;;;;;;;;;5076717;28;20591;-65
2021/04/30 08:48:11;;;;;;;16.38;14.68;;;;;;;;;;5069737;28;20341;-65
2021/04/30 08:50:37;;;;;;;20.33;16.65;;;;;;;;;;5076878;28;20204;-65
2021/04/30 08:53:05;;;;;;;18.35;15.15;;;;;;;;;;5081202;28;20739;-65
2021/04/30 08:55:33;;;;;;;21.40;17.10;;;;;;;;;;5077862;28;20212;-65
2021/04/30 08:57:59;;;;;;;21.83;16.83;;;;;;;;;;5078485;28;20286;-65
2021/04/30 09:00:28;;;;;;;31.55;16.70;;;;;;;;;;5078063;28;20295;-65
2021/04/30 09:02:56;;;;;;;20.55;15.90;;;;;;;;;;5077728;28;20687;-65
2021/04/30 09:05:24;;;;;;;22.00;16.85;;;;;;;;;;5078774;28;20238;-66
2021/04/30 09:07:51;;;;;;;20.80;18.50;;;;;;;;;;5079261;28;20211;-66
2021/04/30 09:10:19;;;;;;;26.65;17.65;;;;;;;;;;5079088;28;20188;-66
2021/04/30 09:13:01;;;;;;;20.48;17.42;;;;;;;;;;5079179;28;20203;-66
2021/04/30 09:15:28;;;;;;;22.13;17.13;;;;;;;;;;5080642;28;20203;-66
2021/04/30 09:17:57;;;;;;;28.02;17.80;;;;;;;;;;5078625;28;20653;-65
2021/04/30 09:20:24;;;;;;;20.35;17.77;;;;;;;;;;5079976;28;20202;-64
2021/04/30 09:22:50;;;;;;;20.33;17.25;;;;;;;;;;5078449;28;20192;-65
2021/04/30 09:25:18;;;;;;;22.95;17.98;;;;;;;;;;5080206;28;20196;-64
2021/04/30 09:27:45;;;;;;;20.50;17.08;;;;;;;;;;5081961;28;20663;-65
2021/04/30 09:30:17;;;;;;;21.60;18.17;;;;;;;;;;5083886;28;20204;-65
2021/04/30 09:33:16;;;;;;;21.25;18.60;;;;;;;;;;5081947;28;20212;-65
2021/04/30 09:35:44;;;;;;;21.38;19.23;;;;;;;;;;5077955;28;20212;-65
2021/04/30 09:38:17;;;;;;;21.92;19.13;;;;;;;;;;5079655;28;20196;-65
2021/04/30 09:40:44;;;;;;;22.17;18.58;;;;;;;;;;5079388;28;20217;-65
2021/04/30 09:43:11;;;;;;;24.00;19.25;;;;;;;;;;5066840;28;20208;-65
2021/04/30 09:45:38;;;;;;;22.35;17.88;;;;;;;;;;5065350;28;20224;-65
2021/04/30 09:48:06;;;;;;;22.65;17.25;;;;;;;;;;5075646;28;20223;-65
2021/04/30 09:50:34;;;;;;;18.55;15.05;;;;;;;;;;5079337;28;20198;-65
2021/04/30 09:53:02;;;;;;;18.23;15.15;;;;;;;;;;5067265;28;20227;-65
2021/04/30 09:55:39;;;;;;;24.25;17.13;;;;;;;;;;5082439;28;20204;-65
2021/04/30 09:58:16;;;;;;;25.33;16.33;;;;;;;;;;5062442;28;20257;-65
2021/04/30 10:00:45;;;;;;;20.02;16.10;;;;;;;;;;5060768;28;20197;-65
2021/04/30 10:03:13;;;;;;;19.92;15.60;;;;;;;;;;5062342;28;20204;-65
2021/04/30 10:05:57;;;;;;;20.20;14.85;;;;;;;;;;5070082;28;20204;-65
2021/04/30 10:08:24;;;;;;;23.15;15.30;;;;;;;;;;5074348;28;20545;-65
2021/04/30 10:10:51;;;;;;;16.95;13.98;;;;;;;;;;5067924;28;20268;-65
2021/04/30 10:13:17;;;;;;;20.25;15.20;;;;;;;;;;5072093;28;20276;-65
2021/04/30 10:15:44;;;;;;;19.65;15.45;;;;;;;;;;5057874;28;20213;-65
2021/04/30 10:18:14;;;;;;;24.10;14.50;;;;;;;;;;5058734;28;20184;-65
2021/04/30 10:20:42;;;;;;;20.50;14.63;;;;;;;;;;5073424;28;20224;-65
2021/04/30 10:23:12;;;;;;;18.27;14.55;;;;;;;;;;5062754;28;20299;-65
2021/04/30 10:25:39;;;;;;;19.42;14.82;;;;;;;;;;5081874;28;20188;-66
2021/04/30 10:28:06;;;;;;;18.40;14.90;;;;;;;;;;5078713;28;20674;-66
2021/04/30 10:30:53;;;;;;;19.77;15.00;;;;;;;;;;5078130;28;20647;-66
2021/04/30 10:33:35;;;;;;;17.00;15.20;;;;;;;;;;5077471;28;20188;-65
2021/04/30 10:36:05;;;;;;;19.00;13.90;;;;;;;;;;5077641;28;20220;-67
2021/04/30 10:38:34;;;;;;;19.73;14.43;;;;;;;;;;5077465;28;20168;-65
2021/04/30 10:41:02;;;;;;;15.63;13.50;;;;;;;;;;5076287;28;20208;-65
2021/04/30 10:43:29;;;;;;;14.43;12.90;;;;;;;;;;5075644;28;20196;-65
2021/04/30 10:45:59;;;;;;;17.45;13.20;;;;;;;;;;5075881;28;20212;-64
2021/04/30 10:48:26;;;;;;;14.45;12.77;;;;;;;;;;5075679;28;20204;-65
2021/04/30 10:50:53;;;;;;;16.98;12.15;;;;;;;;;;5076232;28;20207;-65
2021/04/30 10:53:24;;;;;;;24.45;12.27;;;;;;;;;;5075740;28;20588;-65
2021/04/30 10:55:51;;;;;;;14.90;12.73;;;;;;;;;;5074908;28;20573;-65
2021/04/30 10:58:37;;;;;;;18.15;15.38;;;;;;;;;;5074477;28;20208;-65
2021/04/30 11:01:23;;;;;;;13.52;11.73;;;;;;;;;;5057573;28;20261;-66
2021/04/30 11:04:08;;;;;;;13.68;12.20;;;;;;;;;;5075880;28;20188;-65
2021/04/30 11:06:36;;;;;;;13.80;12.30;;;;;;;;;;5074243;28;21261;-65
2021/04/30 11:09:06;;;;;;;13.05;11.68;;;;;;;;;;5075426;28;20229;-65
2021/04/30 11:11:36;;;;;;;12.52;10.93;;;;;;;;;;5075300;28;20267;-65
2021/04/30 11:14:18;;;;;;;12.70;11.25;;;;;;;;;;5075748;28;20210;-65
2021/04/30 11:16:48;;;;;;;13.73;11.90;;;;;;;;;;5076315;28;20212;-65
2021/04/30 11:19:15;;;;;;;13.73;12.30;;;;;;;;;;5077775;28;20276;-65
2021/04/30 11:21:43;;;;;;;14.05;12.32;;;;;;;;;;5077106;28;20203;-65
2021/04/30 11:24:28;;;;;;;16.05;12.02;;;;;;;;;;5076601;28;20208;-65
2021/04/30 11:27:14;;;;;;;16.38;13.30;;;;;;;;;;5074057;28;20228;-64
2021/04/30 11:29:41;;;;;;;14.10;12.60;;;;;;;;;;5077514;28;20191;-66
2021/04/30 11:32:21;;;;;;;14.75;12.82;;;;;;;;;;5077300;28;20640;-65
2021/04/30 11:34:52;;;;;;;14.13;12.68;;;;;;;;;;5077516;28;20565;-65
2021/04/30 11:37:20;;;;;;;16.33;12.77;;;;;;;;;;5078252;28;20217;-65
2021/04/30 11:39:47;;;;;;;14.40;13.00;;;;;;;;;;5078724;28;20286;-66
2021/04/30 11:42:14;;;;;;;14.45;13.15;;;;;;;;;;5079055;28;20204;-66
2021/04/30 11:44:44;;;;;;;20.90;15.23;;;;;;;;;;5078692;28;20215;-65
2021/04/30 11:47:15;;;;;;;15.45;12.95;;;;;;;;;;5077857;28;20214;-65
2021/04/30 11:49:42;;;;;;;15.95;13.55;;;;;;;;;;5078124;28;20202;-65
2021/04/30 11:52:13;;;;;;;17.73;13.70;;;;;;;;;;5079221;28;20255;-66
2021/04/30 11:54:41;;;;;;;16.08;13.32;;;;;;;;;;5079701;28;20262;-65
2021/04/30 11:57:09;;;;;;;15.73;14.13;;;;;;;;;;5079454;28;20204;-66
2021/04/30 11:59:37;;;;;;;17.40;15.07;;;;;;;;;;5077613;28;20290;-66
2021/04/30 12:02:07;;;;;;;17.63;15.20;;;;;;;;;;5078353;28;20199;-65
2021/04/30 12:04:54;;;;;;;17.58;14.98;;;;;;;;;;5075745;28;20226;-65
2021/04/30 12:07:23;;;;;;;21.00;16.48;;;;;;;;;;5075856;28;20228;-64
2021/04/30 12:09:50;;;;;;;20.70;16.67;;;;;;;;;;5076058;28;20212;-65
2021/04/30 12:12:19;;;;;;;18.55;16.02;;;;;;;;;;5075445;28;20647;-66
2021/04/30 12:14:45;;;;;;;26.33;19.67;;;;;;;;;;5076005;28;20207;-65
2021/04/30 12:17:25;;;;;;;25.77;17.92;;;;;;;;;;5074462;28;20208;-65
2021/04/30 12:19:53;;;;;;;23.10;16.85;;;;;;;;;;5072988;28;20219;-66
2021/04/30 12:22:20;;;;;;;20.85;15.88;;;;;;;;;;5074846;28;20198;-65
2021/04/30 12:24:46;;;;;;;20.35;15.75;;;;;;;;;;5075783;28;20530;-65
2021/04/30 12:27:29;;;;;;;18.67;15.07;;;;;;;;;;5078932;28;20314;-66
2021/04/30 12:29:56;;;;;;;19.10;16.67;;;;;;;;;;5079663;28;20662;-66
2021/04/30 12:32:27;;;;;;;18.73;14.75;;;;;;;;;;5079794;28;20199;-66
2021/04/30 12:34:58;;;;;;;25.60;16.77;;;;;;;;;;5079897;28;20204;-66
2021/04/30 12:37:24;;;;;;;22.58;16.00;;;;;;;;;;5080128;28;20180;-66
2021/04/30 12:39:51;;;;;;;18.27;16.35;;;;;;;;;;5079471;28;20365;-66
2021/04/30 12:42:18;;;;;;;23.67;18.30;;;;;;;;;;5079960;28;20207;-66
2021/04/30 12:44:59;;;;;;;32.17;18.77;;;;;;;;;;5079531;28;20196;-65
2021/04/30 12:47:26;;;;;;;15.98;14.35;;;;;;;;;;5078720;28;20228;-66
2021/04/30 12:49:54;;;;;;;15.18;13.55;;;;;;;;;;5079538;28;20322;-65
2021/04/30 12:52:20;;;;;;;17.20;15.27;;;;;;;;;;5079124;28;20220;-64
2021/04/30 12:54:47;;;;;;;20.85;16.65;;;;;;;;;;5079529;28;20223;-65
2021/04/30 12:57:15;;;;;;;19.52;14.40;;;;;;;;;;5080381;28;20738;-65
2021/04/30 12:59:57;;;;;;;22.00;16.42;;;;;;;;;;5077983;28;20297;-65
2021/04/30 13:02:28;;;;;;;18.00;15.63;;;;;;;;;;5078696;28;20173;-65
2021/04/30 13:04:55;;;;;;;21.42;15.80;;;;;;;;;;5079136;28;20195;-66
2021/04/30 13:07:22;;;;;;;19.40;16.45;;;;;;;;;;5079964;28;20315;-66
2021/04/30 13:09:49;;;;;;;15.80;14.20;;;;;;;;;;5081591;28;20204;-66
2021/04/30 13:12:16;;;;;;;14.98;12.35;;;;;;;;;;5081281;28;20275;-66
2021/04/30 13:14:55;;;;;;;16.65;13.73;;;;;;;;;;5080738;28;20202;-66
2021/04/30 13:17:22;;;;;;;18.70;16.33;;;;;;;;;;5079564;28;20208;-66
2021/04/30 13:19:50;;;;;;;17.70;14.48;;;;;;;;;;5079806;28;20222;-66
2021/04/30 13:22:18;;;;;;;18.10;13.95;;;;;;;;;;5079288;28;20194;-66
2021/04/30 13:24:48;;;;;;;16.27;14.57;;;;;;;;;;5080083;28;20249;-66
2021/04/30 13:27:16;;;;;;;17.42;13.38;;;;;;;;;;5078929;28;20212;-67
2021/04/30 13:29:49;;;;;;;18.95;14.75;;;;;;;;;;5079580;28;20186;-66
2021/04/30 13:32:23;;;;;;;17.90;14.70;;;;;;;;;;5078938;28;20188;-66
2021/04/30 13:34:57;;;;;;;20.98;13.88;;;;;;;;;;5079717;28;20219;-66
2021/04/30 13:37:28;;;;;;;19.52;14.15;;;;;;;;;;5079164;28;20226;-66
2021/04/30 13:39:55;;;;;;;14.10;12.80;;;;;;;;;;5078197;28;20208;-65
2021/04/30 13:42:26;;;;;;;18.38;13.55;;;;;;;;;;5059528;28;20205;-66
2021/04/30 13:44:57;;;;;;;15.98;14.27;;;;;;;;;;5073022;28;20211;-66
2021/04/30 13:47:24;;;;;;;15.02;13.43;;;;;;;;;;5078363;28;20208;-66
2021/04/30 13:49:51;;;;;;;14.93;12.63;;;;;;;;;;5078243;28;20200;-66
2021/04/30 13:52:19;;;;;;;18.73;14.88;;;;;;;;;;5078032;28;20227;-65
2021/04/30 13:54:46;;;;;;;14.57;13.00;;;;;;;;;;5076358;28;20640;-66
2021/04/30 13:57:13;;;;;;;14.52;13.10;;;;;;;;;;5075935;28;20233;-66
2021/04/30 13:59:40;;;;;;;15.88;13.68;;;;;;;;;;5076006;28;20195;-66
2021/04/30 14:02:08;;;;;;;15.52;13.90;;;;;;;;;;5075980;28;20256;-66
2021/04/30 14:04:35;;;;;;;17.23;15.10;;;;;;;;;;5067610;28;20593;-66
2021/04/30 14:07:02;;;;;;;19.27;13.93;;;;;;;;;;5078389;28;20279;-66
2021/04/30 14:09:28;;;;;;;16.27;14.57;;;;;;;;;;5061781;28;20260;-65
2021/04/30 14:11:59;;;;;;;20.58;14.98;;;;;;;;;;5073257;28;20200;-64
2021/04/30 14:14:30;;;;;;;16.67;14.65;;;;;;;;;;5071659;28;20640;-64
2021/04/30 14:16:56;;;;;;;18.67;15.43;;;;;;;;;;5073417;28;20203;-64
2021/04/30 14:19:23;;;;;;;16.88;15.07;;;;;;;;;;5073163;28;20242;-64
2021/04/30 14:21:50;;;;;;;16.08;14.48;;;;;;;;;;5064498;28;20208;-64
2021/04/30 14:24:17;;;;;;;18.45;15.38;;;;;;;;;;5068550;28;20254;-65
2021/04/30 14:26:44;;;;;;;17.20;15.45;;;;;;;;;;5074071;28;20219;-65
2021/04/30 14:29:11;;;;;;;17.20;15.45;;;;;;;;;;5074313;28;20272;-65